sensor_id;sensor_type;location;lat;lon;timestamp;P1;durP1;ratioP1;P2;durP2;ratioP2
26014;SDS011;13793;55.388;37.844;2023-07-31T00:01:48;10.08;;;6.05;;
26014;SDS011;13793;55.388;37.844;2023-07-31T00:04:29;9.78;;;5.92;;
26014;SDS011;13793;55.388;37.844;2023-07-31T00:07:00;7.42;;;5.87;;
26014;SDS011;13793;55.388;37.844;2023-07-31T00:09:42;8.55;;;5.70;;
26014;SDS011;13793;55.388;37.844;2023-07-31T00:12:14;8.90;;;5.67;;
26014;SDS011;13793;55.388;37.844;2023-07-31T00:14:55;6.87;;;5.87;;
26014;SDS011;13793;55.388;37.844;2023-07-31T00:17:25;6.72;;;5.83;;
26014;SDS011;13793;55.388;37.844;2023-07-31T00:20:06;7.83;;;5.58;;
26014;SDS011;13793;55.388;37.844;2023-07-31T00:22:38;7.12;;;5.85;;
26014;SDS011;13793;55.388;37.844;2023-07-31T00:25:18;8.13;;;6.37;;
26014;SDS011;13793;55.388;37.844;2023-07-31T00:27:49;9.05;;;6.08;;
26014;SDS011;13793;55.388;37.844;2023-07-31T00:30:31;9.60;;;5.90;;
26014;SDS011;13793;55.388;37.844;2023-07-31T00:33:03;10.95;;;6.30;;
26014;SDS011;13793;55.388;37.844;2023-07-31T00:35:44;11.33;;;6.00;;
26014;SDS011;13793;55.388;37.844;2023-07-31T00:38:15;9.30;;;6.35;;
26014;SDS011;13793;55.388;37.844;2023-07-31T00:41:02;11.12;;;6.15;;
26014;SDS011;13793;55.388;37.844;2023-07-31T00:43:33;7.70;;;6.25;;
26014;SDS011;13793;55.388;37.844;2023-07-31T00:46:14;9.73;;;6.35;;
26014;SDS011;13793;55.388;37.844;2023-07-31T00:48:45;8.23;;;6.40;;
26014;SDS011;13793;55.388;37.844;2023-07-31T00:51:26;8.88;;;6.20;;
26014;SDS011;13793;55.388;37.844;2023-07-31T00:53:58;9.08;;;6.58;;
26014;SDS011;13793;55.388;37.844;2023-07-31T00:56:39;8.08;;;6.67;;
26014;SDS011;13793;55.388;37.844;2023-07-31T00:59:11;12.23;;;6.53;;
26014;SDS011;13793;55.388;37.844;2023-07-31T01:01:52;8.53;;;6.62;;
26014;SDS011;13793;55.388;37.844;2023-07-31T01:04:23;7.78;;;6.10;;
26014;SDS011;13793;55.388;37.844;2023-07-31T01:07:26;8.45;;;6.25;;
26014;SDS011;13793;55.388;37.844;2023-07-31T01:10:04;16.82;;;6.50;;
26014;SDS011;13793;55.388;37.844;2023-07-31T01:12:49;8.55;;;5.83;;
26014;SDS011;13793;55.388;37.844;2023-07-31T01:15:20;10.00;;;6.08;;
26014;SDS011;13793;55.388;37.844;2023-07-31T01:18:01;7.45;;;5.87;;
26014;SDS011;13793;55.388;37.844;2023-07-31T01:20:42;10.23;;;6.33;;
26014;SDS011;13793;55.388;37.844;2023-07-31T01:26:11;8.33;;;5.95;;
26014;SDS011;13793;55.388;37.844;2023-07-31T01:31:28;7.62;;;5.47;;
26014;SDS011;13793;55.388;37.844;2023-07-31T01:34:00;9.50;;;5.95;;
26014;SDS011;13793;55.388;37.844;2023-07-31T01:36:41;9.60;;;5.83;;
26014;SDS011;13793;55.388;37.844;2023-07-31T01:39:12;7.87;;;5.67;;
26014;SDS011;13793;55.388;37.844;2023-07-31T01:41:54;9.10;;;5.80;;
26014;SDS011;13793;55.388;37.844;2023-07-31T01:44:25;7.95;;;5.90;;
26014;SDS011;13793;55.388;37.844;2023-07-31T01:47:06;8.68;;;6.55;;
26014;SDS011;13793;55.388;37.844;2023-07-31T01:49:37;9.70;;;5.37;;
26014;SDS011;13793;55.388;37.844;2023-07-31T01:52:24;8.63;;;6.45;;
26014;SDS011;13793;55.388;37.844;2023-07-31T01:54:55;10.58;;;6.58;;
26014;SDS011;13793;55.388;37.844;2023-07-31T01:57:37;12.37;;;6.28;;
26014;SDS011;13793;55.388;37.844;2023-07-31T02:00:07;7.42;;;6.50;;
26014;SDS011;13793;55.388;37.844;2023-07-31T02:02:51;10.55;;;6.60;;
26014;SDS011;13793;55.388;37.844;2023-07-31T02:05:22;8.38;;;5.53;;
26014;SDS011;13793;55.388;37.844;2023-07-31T02:08:03;9.45;;;6.20;;
26014;SDS011;13793;55.388;37.844;2023-07-31T02:10:34;8.45;;;5.85;;
26014;SDS011;13793;55.388;37.844;2023-07-31T02:13:21;10.88;;;6.47;;
26014;SDS011;13793;55.388;37.844;2023-07-31T02:15:52;12.05;;;7.30;;
26014;SDS011;13793;55.388;37.844;2023-07-31T02:18:33;9.18;;;5.92;;
26014;SDS011;13793;55.388;37.844;2023-07-31T02:21:14;14.45;;;6.35;;
26014;SDS011;13793;55.388;37.844;2023-07-31T02:23:45;8.70;;;6.65;;
26014;SDS011;13793;55.388;37.844;2023-07-31T02:26:26;11.20;;;6.45;;
26014;SDS011;13793;55.388;37.844;2023-07-31T02:29:07;9.63;;;6.00;;
26014;SDS011;13793;55.388;37.844;2023-07-31T02:31:38;6.60;;;5.80;;
26014;SDS011;13793;55.388;37.844;2023-07-31T02:34:19;9.78;;;6.12;;
26014;SDS011;13793;55.388;37.844;2023-07-31T02:36:50;8.23;;;6.33;;
26014;SDS011;13793;55.388;37.844;2023-07-31T02:39:31;8.80;;;6.47;;
26014;SDS011;13793;55.388;37.844;2023-07-31T02:42:02;8.53;;;6.35;;
26014;SDS011;13793;55.388;37.844;2023-07-31T02:44:43;8.48;;;6.45;;
26014;SDS011;13793;55.388;37.844;2023-07-31T02:47:14;7.28;;;5.70;;
26014;SDS011;13793;55.388;37.844;2023-07-31T02:49:56;8.93;;;5.97;;
26014;SDS011;13793;55.388;37.844;2023-07-31T02:52:30;8.35;;;6.25;;
26014;SDS011;13793;55.388;37.844;2023-07-31T02:55:16;10.10;;;6.20;;
26014;SDS011;13793;55.388;37.844;2023-07-31T02:57:47;8.75;;;6.00;;
26014;SDS011;13793;55.388;37.844;2023-07-31T03:00:28;8.43;;;5.50;;
26014;SDS011;13793;55.388;37.844;2023-07-31T03:02:59;8.15;;;5.12;;
26014;SDS011;13793;55.388;37.844;2023-07-31T03:05:46;7.25;;;5.75;;
26014;SDS011;13793;55.388;37.844;2023-07-31T03:08:17;7.05;;;5.05;;
26014;SDS011;13793;55.388;37.844;2023-07-31T03:10:58;9.63;;;5.40;;
26014;SDS011;13793;55.388;37.844;2023-07-31T03:13:29;8.30;;;5.10;;
26014;SDS011;13793;55.388;37.844;2023-07-31T03:16:10;9.65;;;5.30;;
26014;SDS011;13793;55.388;37.844;2023-07-31T03:18:40;7.50;;;4.95;;
26014;SDS011;13793;55.388;37.844;2023-07-31T03:21:21;7.25;;;4.87;;
26014;SDS011;13793;55.388;37.844;2023-07-31T03:23:52;7.90;;;5.33;;
26014;SDS011;13793;55.388;37.844;2023-07-31T03:26:33;13.22;;;5.15;;
26014;SDS011;13793;55.388;37.844;2023-07-31T03:29:05;6.37;;;4.50;;
26014;SDS011;13793;55.388;37.844;2023-07-31T03:31:46;5.33;;;4.33;;
26014;SDS011;13793;55.388;37.844;2023-07-31T03:34:17;7.58;;;4.58;;
26014;SDS011;13793;55.388;37.844;2023-07-31T03:36:58;6.58;;;4.45;;
26014;SDS011;13793;55.388;37.844;2023-07-31T03:39:29;7.53;;;4.33;;
26014;SDS011;13793;55.388;37.844;2023-07-31T03:42:10;7.67;;;4.33;;
26014;SDS011;13793;55.388;37.844;2023-07-31T03:44:41;6.17;;;4.15;;
26014;SDS011;13793;55.388;37.844;2023-07-31T03:47:22;6.12;;;4.45;;
26014;SDS011;13793;55.388;37.844;2023-07-31T03:50:04;6.65;;;4.25;;
26014;SDS011;13793;55.388;37.844;2023-07-31T03:52:35;5.00;;;4.12;;
26014;SDS011;13793;55.388;37.844;2023-07-31T03:55:16;7.05;;;4.12;;
26014;SDS011;13793;55.388;37.844;2023-07-31T03:57:47;7.00;;;3.92;;
26014;SDS011;13793;55.388;37.844;2023-07-31T04:00:28;5.15;;;3.65;;
26014;SDS011;13793;55.388;37.844;2023-07-31T04:02:59;6.65;;;3.67;;
26014;SDS011;13793;55.388;37.844;2023-07-31T04:05:40;7.42;;;4.12;;
26014;SDS011;13793;55.388;37.844;2023-07-31T04:08:11;5.47;;;3.83;;
26014;SDS011;13793;55.388;37.844;2023-07-31T04:10:53;7.87;;;3.67;;
26014;SDS011;13793;55.388;37.844;2023-07-31T04:13:24;7.37;;;4.55;;
26014;SDS011;13793;55.388;37.844;2023-07-31T04:16:06;5.20;;;3.30;;
26014;SDS011;13793;55.388;37.844;2023-07-31T04:18:37;6.15;;;3.77;;
26014;SDS011;13793;55.388;37.844;2023-07-31T04:21:18;5.45;;;3.50;;
26014;SDS011;13793;55.388;37.844;2023-07-31T04:23:48;4.80;;;3.37;;
26014;SDS011;13793;55.388;37.844;2023-07-31T04:26:29;4.95;;;3.60;;
26014;SDS011;13793;55.388;37.844;2023-07-31T04:29:00;4.42;;;2.95;;
26014;SDS011;13793;55.388;37.844;2023-07-31T04:31:41;4.75;;;2.90;;
26014;SDS011;13793;55.388;37.844;2023-07-31T04:34:12;4.70;;;3.33;;
26014;SDS011;13793;55.388;37.844;2023-07-31T04:36:53;6.33;;;3.87;;
26014;SDS011;13793;55.388;37.844;2023-07-31T04:39:23;6.62;;;3.37;;
26014;SDS011;13793;55.388;37.844;2023-07-31T04:42:04;4.15;;;3.17;;
26014;SDS011;13793;55.388;37.844;2023-07-31T04:44:35;4.30;;;2.85;;
26014;SDS011;13793;55.388;37.844;2023-07-31T04:47:16;4.95;;;2.70;;
26014;SDS011;13793;55.388;37.844;2023-07-31T04:49:47;7.87;;;2.83;;
26014;SDS011;13793;55.388;37.844;2023-07-31T04:52:28;4.25;;;3.02;;
26014;SDS011;13793;55.388;37.844;2023-07-31T04:54:59;5.05;;;2.80;;
26014;SDS011;13793;55.388;37.844;2023-07-31T04:57:39;7.55;;;3.05;;
26014;SDS011;13793;55.388;37.844;2023-07-31T05:00:11;4.00;;;2.58;;
26014;SDS011;13793;55.388;37.844;2023-07-31T05:02:52;3.92;;;2.47;;
26014;SDS011;13793;55.388;37.844;2023-07-31T05:05:22;5.05;;;2.70;;
26014;SDS011;13793;55.388;37.844;2023-07-31T05:08:03;3.33;;;2.62;;
26014;SDS011;13793;55.388;37.844;2023-07-31T05:10:34;2.75;;;2.27;;
26014;SDS011;13793;55.388;37.844;2023-07-31T05:13:15;3.95;;;2.95;;
26014;SDS011;13793;55.388;37.844;2023-07-31T05:15:46;6.03;;;2.35;;
26014;SDS011;13793;55.388;37.844;2023-07-31T05:18:34;5.17;;;2.65;;
26014;SDS011;13793;55.388;37.844;2023-07-31T05:21:05;3.35;;;2.20;;
26014;SDS011;13793;55.388;37.844;2023-07-31T05:23:45;4.80;;;2.30;;
26014;SDS011;13793;55.388;37.844;2023-07-31T05:26:16;5.60;;;2.52;;
26014;SDS011;13793;55.388;37.844;2023-07-31T05:28:57;5.33;;;2.20;;
26014;SDS011;13793;55.388;37.844;2023-07-31T05:31:38;2.75;;;1.90;;
26014;SDS011;13793;55.388;37.844;2023-07-31T05:34:09;4.65;;;2.22;;
26014;SDS011;13793;55.388;37.844;2023-07-31T05:36:51;5.05;;;2.50;;
26014;SDS011;13793;55.388;37.844;2023-07-31T05:39:22;6.92;;;2.85;;
26014;SDS011;13793;55.388;37.844;2023-07-31T05:42:03;4.28;;;2.20;;
26014;SDS011;13793;55.388;37.844;2023-07-31T05:44:34;3.00;;;2.20;;
26014;SDS011;13793;55.388;37.844;2023-07-31T05:47:15;4.95;;;2.42;;
26014;SDS011;13793;55.388;37.844;2023-07-31T05:49:46;2.72;;;2.12;;
26014;SDS011;13793;55.388;37.844;2023-07-31T05:52:34;2.35;;;1.72;;
26014;SDS011;13793;55.388;37.844;2023-07-31T05:55:05;3.15;;;1.80;;
26014;SDS011;13793;55.388;37.844;2023-07-31T05:57:47;2.45;;;1.90;;
26014;SDS011;13793;55.388;37.844;2023-07-31T06:00:18;2.85;;;1.75;;
26014;SDS011;13793;55.388;37.844;2023-07-31T06:02:59;2.15;;;1.75;;
26014;SDS011;13793;55.388;37.844;2023-07-31T06:05:30;2.65;;;1.77;;
26014;SDS011;13793;55.388;37.844;2023-07-31T06:08:11;3.98;;;1.80;;
26014;SDS011;13793;55.388;37.844;2023-07-31T06:10:42;6.75;;;1.90;;
26014;SDS011;13793;55.388;37.844;2023-07-31T06:13:23;2.95;;;1.98;;
26014;SDS011;13793;55.388;37.844;2023-07-31T06:16:05;3.25;;;1.47;;
26014;SDS011;13793;55.388;37.844;2023-07-31T06:18:35;1.87;;;1.37;;
26014;SDS011;13793;55.388;37.844;2023-07-31T06:21:16;2.40;;;1.70;;
26014;SDS011;13793;55.388;37.844;2023-07-31T06:23:47;3.10;;;1.52;;
26014;SDS011;13793;55.388;37.844;2023-07-31T06:26:28;2.30;;;1.30;;
26014;SDS011;13793;55.388;37.844;2023-07-31T06:28:59;3.00;;;1.50;;
26014;SDS011;13793;55.388;37.844;2023-07-31T06:31:40;1.87;;;1.32;;
26014;SDS011;13793;55.388;37.844;2023-07-31T06:34:11;2.33;;;1.47;;
26014;SDS011;13793;55.388;37.844;2023-07-31T06:36:52;4.83;;;1.40;;
26014;SDS011;13793;55.388;37.844;2023-07-31T06:39:23;2.90;;;1.40;;
26014;SDS011;13793;55.388;37.844;2023-07-31T06:42:04;2.40;;;1.40;;
26014;SDS011;13793;55.388;37.844;2023-07-31T06:44:35;4.65;;;1.40;;
26014;SDS011;13793;55.388;37.844;2023-07-31T06:47:16;2.10;;;1.45;;
26014;SDS011;13793;55.388;37.844;2023-07-31T06:49:47;3.92;;;1.40;;
26014;SDS011;13793;55.388;37.844;2023-07-31T06:52:48;1.92;;;1.55;;
26014;SDS011;13793;55.388;37.844;2023-07-31T06:55:19;1.57;;;1.35;;
26014;SDS011;13793;55.388;37.844;2023-07-31T06:58:04;2.00;;;1.22;;
26014;SDS011;13793;55.388;37.844;2023-07-31T07:00:35;1.85;;;1.40;;
26014;SDS011;13793;55.388;37.844;2023-07-31T07:03:17;1.42;;;1.20;;
26014;SDS011;13793;55.388;37.844;2023-07-31T07:05:49;2.35;;;1.10;;
26014;SDS011;13793;55.388;37.844;2023-07-31T07:08:30;2.85;;;1.20;;
26014;SDS011;13793;55.388;37.844;2023-07-31T07:11:01;3.80;;;1.50;;
26014;SDS011;13793;55.388;37.844;2023-07-31T07:13:41;2.50;;;1.30;;
26014;SDS011;13793;55.388;37.844;2023-07-31T07:16:13;1.42;;;1.10;;
26014;SDS011;13793;55.388;37.844;2023-07-31T07:18:54;1.87;;;0.98;;
26014;SDS011;13793;55.388;37.844;2023-07-31T07:21:25;6.03;;;2.12;;
26014;SDS011;13793;55.388;37.844;2023-07-31T07:24:06;2.00;;;1.32;;
26014;SDS011;13793;55.388;37.844;2023-07-31T07:26:37;1.30;;;1.00;;
26014;SDS011;13793;55.388;37.844;2023-07-31T07:29:18;2.83;;;1.00;;
26014;SDS011;13793;55.388;37.844;2023-07-31T07:31:49;2.35;;;1.00;;
26014;SDS011;13793;55.388;37.844;2023-07-31T07:34:30;2.58;;;1.25;;
26014;SDS011;13793;55.388;37.844;2023-07-31T07:37:01;1.25;;;1.02;;
26014;SDS011;13793;55.388;37.844;2023-07-31T07:39:41;1.95;;;1.70;;
26014;SDS011;13793;55.388;37.844;2023-07-31T07:42:12;3.05;;;1.10;;
26014;SDS011;13793;55.388;37.844;2023-07-31T07:44:53;1.90;;;1.05;;
26014;SDS011;13793;55.388;37.844;2023-07-31T07:47:24;1.22;;;1.00;;
26014;SDS011;13793;55.388;37.844;2023-07-31T07:50:06;1.37;;;1.00;;
26014;SDS011;13793;55.388;37.844;2023-07-31T07:52:37;1.30;;;1.05;;
26014;SDS011;13793;55.388;37.844;2023-07-31T07:55:18;1.77;;;1.25;;
26014;SDS011;13793;55.388;37.844;2023-07-31T07:57:50;2.55;;;1.02;;
26014;SDS011;13793;55.388;37.844;2023-07-31T08:00:31;1.77;;;1.20;;
26014;SDS011;13793;55.388;37.844;2023-07-31T08:03:02;2.40;;;1.07;;
26014;SDS011;13793;55.388;37.844;2023-07-31T08:05:43;3.65;;;1.25;;
26014;SDS011;13793;55.388;37.844;2023-07-31T08:08:14;2.35;;;1.02;;
26014;SDS011;13793;55.388;37.844;2023-07-31T08:10:55;1.02;;;0.93;;
26014;SDS011;13793;55.388;37.844;2023-07-31T08:13:26;1.27;;;1.00;;
26014;SDS011;13793;55.388;37.844;2023-07-31T08:16:07;1.00;;;0.90;;
26014;SDS011;13793;55.388;37.844;2023-07-31T08:18:38;1.85;;;1.00;;
26014;SDS011;13793;55.388;37.844;2023-07-31T08:21:21;1.27;;;1.00;;
26014;SDS011;13793;55.388;37.844;2023-07-31T08:23:53;1.70;;;1.15;;
26014;SDS011;13793;55.388;37.844;2023-07-31T08:26:33;2.92;;;1.00;;
26014;SDS011;13793;55.388;37.844;2023-07-31T08:29:04;1.72;;;1.10;;
26014;SDS011;13793;55.388;37.844;2023-07-31T08:31:45;1.60;;;1.00;;
26014;SDS011;13793;55.388;37.844;2023-07-31T08:34:16;1.57;;;1.30;;
26014;SDS011;13793;55.388;37.844;2023-07-31T08:36:58;1.70;;;1.10;;
26014;SDS011;13793;55.388;37.844;2023-07-31T08:39:28;2.75;;;1.22;;
26014;SDS011;13793;55.388;37.844;2023-07-31T08:42:15;1.10;;;1.00;;
26014;SDS011;13793;55.388;37.844;2023-07-31T08:44:46;1.60;;;1.22;;
26014;SDS011;13793;55.388;37.844;2023-07-31T08:47:34;2.20;;;1.20;;
26014;SDS011;13793;55.388;37.844;2023-07-31T08:50:17;5.78;;;1.47;;
26014;SDS011;13793;55.388;37.844;2023-07-31T08:52:49;2.33;;;1.10;;
26014;SDS011;13793;55.388;37.844;2023-07-31T08:55:30;1.47;;;1.22;;
26014;SDS011;13793;55.388;37.844;2023-07-31T08:58:12;1.60;;;1.10;;
26014;SDS011;13793;55.388;37.844;2023-07-31T12:51:48;2.55;;;2.10;;
26014;SDS011;13793;55.388;37.844;2023-07-31T12:54:30;2.17;;;1.75;;
26014;SDS011;13793;55.388;37.844;2023-07-31T12:57:10;2.83;;;2.05;;
26014;SDS011;13793;55.388;37.844;2023-07-31T12:59:41;2.00;;;1.80;;
26014;SDS011;13793;55.388;37.844;2023-07-31T13:02:22;2.35;;;1.90;;
26014;SDS011;13793;55.388;37.844;2023-07-31T13:04:52;2.27;;;1.75;;
26014;SDS011;13793;55.388;37.844;2023-07-31T13:07:34;2.17;;;1.98;;
26014;SDS011;13793;55.388;37.844;2023-07-31T13:10:06;2.00;;;1.90;;
26014;SDS011;13793;55.388;37.844;2023-07-31T13:12:47;2.35;;;1.98;;
26014;SDS011;13793;55.388;37.844;2023-07-31T13:15:18;2.22;;;1.90;;
26014;SDS011;13793;55.388;37.844;2023-07-31T13:17:59;7.15;;;1.98;;
26014;SDS011;13793;55.388;37.844;2023-07-31T13:20:40;3.08;;;1.90;;
26014;SDS011;13793;55.388;37.844;2023-07-31T13:23:10;2.22;;;1.87;;
26014;SDS011;13793;55.388;37.844;2023-07-31T13:25:51;3.50;;;2.12;;
26014;SDS011;13793;55.388;37.844;2023-07-31T13:28:22;2.02;;;1.80;;
26014;SDS011;13793;55.388;37.844;2023-07-31T13:31:03;3.33;;;2.02;;
26014;SDS011;13793;55.388;37.844;2023-07-31T13:33:34;2.83;;;1.87;;
26014;SDS011;13793;55.388;37.844;2023-07-31T13:36:34;3.52;;;2.15;;
26014;SDS011;13793;55.388;37.844;2023-07-31T13:39:05;2.30;;;1.92;;
26014;SDS011;13793;55.388;37.844;2023-07-31T13:41:46;3.02;;;1.98;;
26014;SDS011;13793;55.388;37.844;2023-07-31T13:44:17;4.30;;;2.10;;
26014;SDS011;13793;55.388;37.844;2023-07-31T13:46:57;2.37;;;1.92;;
26014;SDS011;13793;55.388;37.844;2023-07-31T13:49:29;2.40;;;1.70;;
26014;SDS011;13793;55.388;37.844;2023-07-31T13:52:10;2.42;;;2.10;;
26014;SDS011;13793;55.388;37.844;2023-07-31T13:54:41;3.00;;;1.77;;
26014;SDS011;13793;55.388;37.844;2023-07-31T13:57:22;3.85;;;2.20;;
26014;SDS011;13793;55.388;37.844;2023-07-31T13:59:52;3.00;;;2.00;;
26014;SDS011;13793;55.388;37.844;2023-07-31T14:02:33;6.17;;;2.20;;
26014;SDS011;13793;55.388;37.844;2023-07-31T14:05:04;3.00;;;2.15;;
26014;SDS011;13793;55.388;37.844;2023-07-31T14:07:46;4.60;;;2.50;;
26014;SDS011;13793;55.388;37.844;2023-07-31T14:10:17;7.28;;;3.58;;
26014;SDS011;13793;55.388;37.844;2023-07-31T14:12:58;4.87;;;2.80;;
26014;SDS011;13793;55.388;37.844;2023-07-31T14:15:29;2.67;;;2.22;;
26014;SDS011;13793;55.388;37.844;2023-07-31T14:18:11;7.10;;;2.37;;
26014;SDS011;13793;55.388;37.844;2023-07-31T14:20:41;5.03;;;2.62;;
26014;SDS011;13793;55.388;37.844;2023-07-31T14:23:22;3.92;;;2.55;;
26014;SDS011;13793;55.388;37.844;2023-07-31T14:25:53;4.08;;;2.80;;
26014;SDS011;13793;55.388;37.844;2023-07-31T14:28:34;4.37;;;3.08;;
26014;SDS011;13793;55.388;37.844;2023-07-31T14:31:05;4.28;;;2.90;;
26014;SDS011;13793;55.388;37.844;2023-07-31T14:33:46;4.60;;;3.08;;
26014;SDS011;13793;55.388;37.844;2023-07-31T14:36:16;5.53;;;2.70;;
26014;SDS011;13793;55.388;37.844;2023-07-31T14:38:57;4.37;;;2.95;;
26014;SDS011;13793;55.388;37.844;2023-07-31T14:41:38;7.10;;;2.83;;
26014;SDS011;13793;55.388;37.844;2023-07-31T14:44:09;6.83;;;2.80;;
26014;SDS011;13793;55.388;37.844;2023-07-31T14:46:50;3.02;;;2.10;;
26014;SDS011;13793;55.388;37.844;2023-07-31T14:49:20;3.75;;;2.50;;
26014;SDS011;13793;55.388;37.844;2023-07-31T14:52:02;2.70;;;2.30;;
26014;SDS011;13793;55.388;37.844;2023-07-31T14:54:33;4.15;;;2.35;;
26014;SDS011;13793;55.388;37.844;2023-07-31T14:57:15;4.35;;;2.50;;
26014;SDS011;13793;55.388;37.844;2023-07-31T14:59:46;4.75;;;2.33;;
26014;SDS011;13793;55.388;37.844;2023-07-31T15:02:26;3.22;;;2.17;;
26014;SDS011;13793;55.388;37.844;2023-07-31T15:04:57;3.65;;;2.58;;
26014;SDS011;13793;55.388;37.844;2023-07-31T15:07:38;4.37;;;2.80;;
26014;SDS011;13793;55.388;37.844;2023-07-31T15:10:09;2.60;;;2.35;;
26014;SDS011;13793;55.388;37.844;2023-07-31T15:12:50;2.77;;;2.40;;
26014;SDS011;13793;55.388;37.844;2023-07-31T15:15:20;4.53;;;2.67;;
26014;SDS011;13793;55.388;37.844;2023-07-31T15:18:07;3.93;;;2.70;;
26014;SDS011;13793;55.388;37.844;2023-07-31T15:20:38;5.62;;;2.60;;
26014;SDS011;13793;55.388;37.844;2023-07-31T15:23:19;4.35;;;3.00;;
26014;SDS011;13793;55.388;37.844;2023-07-31T15:25:49;5.03;;;2.70;;
26014;SDS011;13793;55.388;37.844;2023-07-31T15:28:30;4.60;;;2.80;;
26014;SDS011;13793;55.388;37.844;2023-07-31T15:31:13;5.30;;;2.77;;
26014;SDS011;13793;55.388;37.844;2023-07-31T15:33:43;4.28;;;2.60;;
26014;SDS011;13793;55.388;37.844;2023-07-31T15:36:24;3.90;;;2.98;;
26014;SDS011;13793;55.388;37.844;2023-07-31T15:39:05;6.45;;;2.40;;
26014;SDS011;13793;55.388;37.844;2023-07-31T15:41:37;5.40;;;2.50;;
26014;SDS011;13793;55.388;37.844;2023-07-31T15:44:18;5.17;;;2.87;;
26014;SDS011;13793;55.388;37.844;2023-07-31T15:46:50;3.37;;;2.67;;
26014;SDS011;13793;55.388;37.844;2023-07-31T15:49:31;4.72;;;2.98;;
26014;SDS011;13793;55.388;37.844;2023-07-31T15:52:02;4.78;;;3.15;;
26014;SDS011;13793;55.388;37.844;2023-07-31T15:54:43;6.28;;;3.15;;
26014;SDS011;13793;55.388;37.844;2023-07-31T15:57:13;6.30;;;3.20;;
26014;SDS011;13793;55.388;37.844;2023-07-31T15:59:54;6.28;;;3.70;;
26014;SDS011;13793;55.388;37.844;2023-07-31T16:02:25;8.25;;;3.60;;
26014;SDS011;13793;55.388;37.844;2023-07-31T16:05:06;5.40;;;3.62;;
26014;SDS011;13793;55.388;37.844;2023-07-31T16:07:37;4.70;;;3.47;;
26014;SDS011;13793;55.388;37.844;2023-07-31T16:10:18;4.22;;;3.70;;
26014;SDS011;13793;55.388;37.844;2023-07-31T16:12:48;6.17;;;3.45;;
26014;SDS011;13793;55.388;37.844;2023-07-31T16:15:29;4.80;;;3.50;;
26014;SDS011;13793;55.388;37.844;2023-07-31T16:18:11;6.87;;;4.20;;
26014;SDS011;13793;55.388;37.844;2023-07-31T16:20:42;7.10;;;4.12;;
26014;SDS011;13793;55.388;37.844;2023-07-31T16:23:28;6.15;;;5.12;;
26014;SDS011;13793;55.388;37.844;2023-07-31T16:25:59;8.90;;;6.53;;
26014;SDS011;13793;55.388;37.844;2023-07-31T16:28:40;6.92;;;5.90;;
26014;SDS011;13793;55.388;37.844;2023-07-31T16:31:11;6.58;;;5.55;;
26014;SDS011;13793;55.388;37.844;2023-07-31T16:33:53;10.58;;;6.08;;
26014;SDS011;13793;55.388;37.844;2023-07-31T16:36:24;9.00;;;6.17;;
26014;SDS011;13793;55.388;37.844;2023-07-31T16:39:05;6.55;;;5.47;;
26014;SDS011;13793;55.388;37.844;2023-07-31T16:41:36;6.90;;;4.80;;
26014;SDS011;13793;55.388;37.844;2023-07-31T16:44:17;10.45;;;4.50;;
26014;SDS011;13793;55.388;37.844;2023-07-31T16:46:57;10.45;;;5.00;;
26014;SDS011;13793;55.388;37.844;2023-07-31T16:49:28;5.60;;;4.72;;
26014;SDS011;13793;55.388;37.844;2023-07-31T16:52:09;5.47;;;4.20;;
26014;SDS011;13793;55.388;37.844;2023-07-31T16:54:40;6.53;;;4.95;;
26014;SDS011;13793;55.388;37.844;2023-07-31T16:57:21;7.75;;;4.97;;
26014;SDS011;13793;55.388;37.844;2023-07-31T16:59:53;8.13;;;5.40;;
26014;SDS011;13793;55.388;37.844;2023-07-31T17:02:34;7.60;;;6.30;;
26014;SDS011;13793;55.388;37.844;2023-07-31T17:05:06;11.93;;;6.40;;
26014;SDS011;13793;55.388;37.844;2023-07-31T17:07:47;10.23;;;5.83;;
26014;SDS011;13793;55.388;37.844;2023-07-31T17:10:19;8.25;;;4.80;;
26014;SDS011;13793;55.388;37.844;2023-07-31T17:12:59;8.10;;;5.58;;
26014;SDS011;13793;55.388;37.844;2023-07-31T17:15:30;9.70;;;5.42;;
26014;SDS011;13793;55.388;37.844;2023-07-31T17:18:11;11.45;;;5.17;;
26014;SDS011;13793;55.388;37.844;2023-07-31T17:20:43;8.68;;;5.00;;
26014;SDS011;13793;55.388;37.844;2023-07-31T17:23:24;11.43;;;5.62;;
26014;SDS011;13793;55.388;37.844;2023-07-31T17:25:55;7.37;;;5.10;;
26014;SDS011;13793;55.388;37.844;2023-07-31T17:28:36;12.18;;;5.78;;
26014;SDS011;13793;55.388;37.844;2023-07-31T17:31:07;10.45;;;5.87;;
26014;SDS011;13793;55.388;37.844;2023-07-31T17:33:51;7.05;;;5.17;;
26014;SDS011;13793;55.388;37.844;2023-07-31T17:36:22;7.53;;;5.33;;
26014;SDS011;13793;55.388;37.844;2023-07-31T17:39:03;10.25;;;5.25;;
26014;SDS011;13793;55.388;37.844;2023-07-31T17:41:34;7.62;;;5.15;;
26014;SDS011;13793;55.388;37.844;2023-07-31T17:44:15;8.95;;;4.87;;
26014;SDS011;13793;55.388;37.844;2023-07-31T17:46:45;6.95;;;5.20;;
26014;SDS011;13793;55.388;37.844;2023-07-31T17:49:34;6.60;;;5.20;;
26014;SDS011;13793;55.388;37.844;2023-07-31T17:52:05;9.50;;;5.28;;
26014;SDS011;13793;55.388;37.844;2023-07-31T17:54:46;8.10;;;5.55;;
26014;SDS011;13793;55.388;37.844;2023-07-31T17:57:18;13.98;;;6.40;;
26014;SDS011;13793;55.388;37.844;2023-07-31T18:00:06;10.40;;;6.28;;
26014;SDS011;13793;55.388;37.844;2023-07-31T18:02:38;9.95;;;6.72;;
26014;SDS011;13793;55.388;37.844;2023-07-31T18:05:19;9.48;;;6.45;;
26014;SDS011;13793;55.388;37.844;2023-07-31T18:07:50;12.55;;;6.08;;
26014;SDS011;13793;55.388;37.844;2023-07-31T18:10:31;11.25;;;6.12;;
26014;SDS011;13793;55.388;37.844;2023-07-31T18:13:02;9.33;;;5.65;;
26014;SDS011;13793;55.388;37.844;2023-07-31T18:16:02;12.60;;;5.75;;
26014;SDS011;13793;55.388;37.844;2023-07-31T18:18:43;9.55;;;5.90;;
26014;SDS011;13793;55.388;37.844;2023-07-31T18:21:14;8.98;;;6.12;;
26014;SDS011;13793;55.388;37.844;2023-07-31T18:23:55;10.03;;;6.12;;
26014;SDS011;13793;55.388;37.844;2023-07-31T18:26:25;11.43;;;6.15;;
26014;SDS011;13793;55.388;37.844;2023-07-31T18:29:06;10.63;;;6.35;;
26014;SDS011;13793;55.388;37.844;2023-07-31T18:31:38;11.73;;;6.92;;
26014;SDS011;13793;55.388;37.844;2023-07-31T18:34:18;12.78;;;7.12;;
26014;SDS011;13793;55.388;37.844;2023-07-31T18:36:49;10.65;;;8.20;;
26014;SDS011;13793;55.388;37.844;2023-07-31T18:39:31;12.18;;;7.95;;
26014;SDS011;13793;55.388;37.844;2023-07-31T18:42:01;12.37;;;9.80;;
26014;SDS011;13793;55.388;37.844;2023-07-31T18:44:42;20.90;;;13.32;;
26014;SDS011;13793;55.388;37.844;2023-07-31T18:47:13;16.07;;;12.05;;
26014;SDS011;13793;55.388;37.844;2023-07-31T18:49:54;20.02;;;12.28;;
26014;SDS011;13793;55.388;37.844;2023-07-31T18:52:25;15.10;;;11.75;;
26014;SDS011;13793;55.388;37.844;2023-07-31T18:55:06;18.17;;;12.23;;
26014;SDS011;13793;55.388;37.844;2023-07-31T18:57:37;19.98;;;13.28;;
26014;SDS011;13793;55.388;37.844;2023-07-31T19:00:19;20.02;;;13.45;;
26014;SDS011;13793;55.388;37.844;2023-07-31T19:02:50;22.30;;;15.18;;
26014;SDS011;13793;55.388;37.844;2023-07-31T19:05:30;24.25;;;14.20;;
26014;SDS011;13793;55.388;37.844;2023-07-31T19:08:01;22.40;;;14.98;;
26014;SDS011;13793;55.388;37.844;2023-07-31T19:10:43;22.77;;;16.62;;
26014;SDS011;13793;55.388;37.844;2023-07-31T19:13:14;25.17;;;17.17;;
26014;SDS011;13793;55.388;37.844;2023-07-31T19:15:55;25.97;;;19.73;;
26014;SDS011;13793;55.388;37.844;2023-07-31T19:18:25;25.02;;;19.48;;
26014;SDS011;13793;55.388;37.844;2023-07-31T19:21:06;30.77;;;21.23;;
26014;SDS011;13793;55.388;37.844;2023-07-31T19:23:37;32.10;;;24.92;;